sensor_id;sensor_type;location;lat;lon;timestamp;P1;durP1;ratioP1;P2;durP2;ratioP2
55330;SDS011;58851;42.984;20.336;2024-02-26T00:00:04;138.45;;;83.38;;
55330;SDS011;58851;42.984;20.336;2024-02-26T00:02:34;118.07;;;74.28;;
55330;SDS011;58851;42.984;20.336;2024-02-26T00:05:05;122.75;;;76.22;;
55330;SDS011;58851;42.984;20.336;2024-02-26T00:07:32;133.40;;;77.72;;
55330;SDS011;58851;42.984;20.336;2024-02-26T00:09:57;121.28;;;73.60;;
55330;SDS011;58851;42.984;20.336;2024-02-26T00:12:23;119.47;;;73.22;;
55330;SDS011;58851;42.984;20.336;2024-02-26T00:14:49;135.48;;;83.82;;
55330;SDS011;58851;42.984;20.336;2024-02-26T00:17:15;127.25;;;83.15;;
55330;SDS011;58851;42.984;20.336;2024-02-26T00:19:41;106.60;;;64.97;;
55330;SDS011;58851;42.984;20.336;2024-02-26T00:22:07;108.60;;;63.22;;
55330;SDS011;58851;42.984;20.336;2024-02-26T00:24:32;98.38;;;64.38;;
55330;SDS011;58851;42.984;20.336;2024-02-26T00:26:59;92.82;;;60.53;;
55330;SDS011;58851;42.984;20.336;2024-02-26T00:29:25;112.53;;;68.97;;
55330;SDS011;58851;42.984;20.336;2024-02-26T00:31:51;117.40;;;72.68;;
55330;SDS011;58851;42.984;20.336;2024-02-26T00:34:16;118.70;;;70.72;;
55330;SDS011;58851;42.984;20.336;2024-02-26T00:36:42;99.85;;;62.75;;
55330;SDS011;58851;42.984;20.336;2024-02-26T00:39:08;100.22;;;65.53;;
55330;SDS011;58851;42.984;20.336;2024-02-26T00:41:37;112.28;;;67.22;;
55330;SDS011;58851;42.984;20.336;2024-02-26T00:44:05;106.60;;;61.95;;
55330;SDS011;58851;42.984;20.336;2024-02-26T00:46:30;104.80;;;64.55;;
55330;SDS011;58851;42.984;20.336;2024-02-26T00:48:56;96.13;;;61.47;;
55330;SDS011;58851;42.984;20.336;2024-02-26T00:51:22;98.25;;;66.75;;
55330;SDS011;58851;42.984;20.336;2024-02-26T00:53:47;83.97;;;53.58;;
55330;SDS011;58851;42.984;20.336;2024-02-26T00:56:13;82.45;;;51.33;;
55330;SDS011;58851;42.984;20.336;2024-02-26T00:58:39;78.38;;;48.17;;
55330;SDS011;58851;42.984;20.336;2024-02-26T01:01:05;72.72;;;45.03;;
55330;SDS011;58851;42.984;20.336;2024-02-26T01:03:31;67.68;;;43.17;;
55330;SDS011;58851;42.984;20.336;2024-02-26T01:05:56;71.28;;;41.88;;
55330;SDS011;58851;42.984;20.336;2024-02-26T01:08:22;69.70;;;42.92;;
55330;SDS011;58851;42.984;20.336;2024-02-26T01:10:48;82.20;;;48.65;;
55330;SDS011;58851;42.984;20.336;2024-02-26T01:13:14;86.82;;;54.63;;
55330;SDS011;58851;42.984;20.336;2024-02-26T01:15:39;89.40;;;56.58;;
55330;SDS011;58851;42.984;20.336;2024-02-26T01:18:05;90.95;;;53.80;;
55330;SDS011;58851;42.984;20.336;2024-02-26T01:20:31;79.10;;;47.65;;
55330;SDS011;58851;42.984;20.336;2024-02-26T01:22:57;83.25;;;54.90;;
55330;SDS011;58851;42.984;20.336;2024-02-26T01:25:22;81.43;;;52.10;;
55330;SDS011;58851;42.984;20.336;2024-02-26T01:27:48;78.13;;;47.90;;
55330;SDS011;58851;42.984;20.336;2024-02-26T01:30:14;83.63;;;49.03;;
55330;SDS011;58851;42.984;20.336;2024-02-26T01:32:41;74.05;;;45.25;;
55330;SDS011;58851;42.984;20.336;2024-02-26T01:35:08;72.95;;;42.25;;
55330;SDS011;58851;42.984;20.336;2024-02-26T01:37:36;64.32;;;40.15;;
55330;SDS011;58851;42.984;20.336;2024-02-26T01:40:02;74.45;;;45.65;;
55330;SDS011;58851;42.984;20.336;2024-02-26T01:42:32;70.95;;;43.92;;
55330;SDS011;58851;42.984;20.336;2024-02-26T01:44:58;62.38;;;36.45;;
55330;SDS011;58851;42.984;20.336;2024-02-26T01:47:24;67.30;;;38.65;;
55330;SDS011;58851;42.984;20.336;2024-02-26T01:49:51;270.88;;;125.93;;
55330;SDS011;58851;42.984;20.336;2024-02-26T01:52:18;353.63;;;165.55;;
55330;SDS011;58851;42.984;20.336;2024-02-26T01:54:44;166.40;;;92.75;;
55330;SDS011;58851;42.984;20.336;2024-02-26T01:57:11;127.72;;;69.70;;
55330;SDS011;58851;42.984;20.336;2024-02-26T01:59:39;142.07;;;77.60;;
55330;SDS011;58851;42.984;20.336;2024-02-26T02:02:06;92.47;;;52.13;;
55330;SDS011;58851;42.984;20.336;2024-02-26T02:04:35;76.25;;;46.70;;
55330;SDS011;58851;42.984;20.336;2024-02-26T02:07:01;68.00;;;42.67;;
55330;SDS011;58851;42.984;20.336;2024-02-26T02:09:28;69.18;;;40.17;;
55330;SDS011;58851;42.984;20.336;2024-02-26T02:11:54;54.72;;;36.38;;
55330;SDS011;58851;42.984;20.336;2024-02-26T02:14:21;60.75;;;37.67;;
55330;SDS011;58851;42.984;20.336;2024-02-26T02:16:47;59.17;;;35.47;;
55330;SDS011;58851;42.984;20.336;2024-02-26T02:19:13;64.93;;;39.40;;
55330;SDS011;58851;42.984;20.336;2024-02-26T02:21:39;123.03;;;69.28;;
55330;SDS011;58851;42.984;20.336;2024-02-26T02:24:05;79.43;;;50.13;;
55330;SDS011;58851;42.984;20.336;2024-02-26T02:26:31;77.90;;;45.60;;
55330;SDS011;58851;42.984;20.336;2024-02-26T02:28:57;79.57;;;44.47;;
55330;SDS011;58851;42.984;20.336;2024-02-26T02:31:24;86.10;;;54.17;;
55330;SDS011;58851;42.984;20.336;2024-02-26T02:33:49;81.15;;;50.22;;
55330;SDS011;58851;42.984;20.336;2024-02-26T02:36:15;86.03;;;51.97;;
55330;SDS011;58851;42.984;20.336;2024-02-26T02:38:50;80.20;;;49.08;;
55330;SDS011;58851;42.984;20.336;2024-02-26T02:41:17;77.60;;;44.72;;
55330;SDS011;58851;42.984;20.336;2024-02-26T02:43:43;61.38;;;40.55;;
55330;SDS011;58851;42.984;20.336;2024-02-26T02:46:09;70.82;;;46.50;;
55330;SDS011;58851;42.984;20.336;2024-02-26T02:48:36;71.95;;;44.13;;
55330;SDS011;58851;42.984;20.336;2024-02-26T02:51:03;67.40;;;42.70;;
55330;SDS011;58851;42.984;20.336;2024-02-26T02:53:29;66.88;;;42.30;;
55330;SDS011;58851;42.984;20.336;2024-02-26T02:55:56;72.40;;;45.15;;
55330;SDS011;58851;42.984;20.336;2024-02-26T02:58:22;68.85;;;43.20;;
55330;SDS011;58851;42.984;20.336;2024-02-26T03:00:47;74.40;;;48.85;;
55330;SDS011;58851;42.984;20.336;2024-02-26T03:03:13;73.95;;;49.42;;
55330;SDS011;58851;42.984;20.336;2024-02-26T03:05:39;79.28;;;47.28;;
55330;SDS011;58851;42.984;20.336;2024-02-26T03:08:05;79.95;;;48.33;;
55330;SDS011;58851;42.984;20.336;2024-02-26T03:10:30;80.07;;;48.10;;
55330;SDS011;58851;42.984;20.336;2024-02-26T03:12:56;72.55;;;45.53;;
55330;SDS011;58851;42.984;20.336;2024-02-26T03:15:22;80.15;;;48.53;;
55330;SDS011;58851;42.984;20.336;2024-02-26T03:17:48;96.57;;;59.67;;
55330;SDS011;58851;42.984;20.336;2024-02-26T03:20:14;121.65;;;73.07;;
55330;SDS011;58851;42.984;20.336;2024-02-26T03:22:39;100.15;;;60.35;;
55330;SDS011;58851;42.984;20.336;2024-02-26T03:25:06;104.70;;;61.25;;
55330;SDS011;58851;42.984;20.336;2024-02-26T03:27:32;114.65;;;69.57;;
55330;SDS011;58851;42.984;20.336;2024-02-26T03:29:58;95.43;;;58.88;;
55330;SDS011;58851;42.984;20.336;2024-02-26T03:32:23;83.32;;;52.80;;
55330;SDS011;58851;42.984;20.336;2024-02-26T03:34:49;81.80;;;48.85;;
55330;SDS011;58851;42.984;20.336;2024-02-26T03:37:19;159.13;;;82.50;;
55330;SDS011;58851;42.984;20.336;2024-02-26T03:39:45;63.45;;;37.10;;
55330;SDS011;58851;42.984;20.336;2024-02-26T03:42:10;55.85;;;34.28;;
55330;SDS011;58851;42.984;20.336;2024-02-26T03:44:36;55.83;;;34.13;;
55330;SDS011;58851;42.984;20.336;2024-02-26T03:47:02;59.60;;;33.95;;
55330;SDS011;58851;42.984;20.336;2024-02-26T03:49:28;58.92;;;36.70;;
55330;SDS011;58851;42.984;20.336;2024-02-26T03:51:54;61.45;;;38.83;;
55330;SDS011;58851;42.984;20.336;2024-02-26T03:54:19;61.10;;;41.80;;
55330;SDS011;58851;42.984;20.336;2024-02-26T03:56:45;70.10;;;44.30;;
55330;SDS011;58851;42.984;20.336;2024-02-26T03:59:11;77.93;;;45.50;;
55330;SDS011;58851;42.984;20.336;2024-02-26T04:01:37;82.07;;;49.67;;
55330;SDS011;58851;42.984;20.336;2024-02-26T04:04:03;77.47;;;45.88;;
55330;SDS011;58851;42.984;20.336;2024-02-26T04:06:28;82.85;;;50.45;;
55330;SDS011;58851;42.984;20.336;2024-02-26T04:08:54;100.60;;;60.53;;
55330;SDS011;58851;42.984;20.336;2024-02-26T04:11:21;100.63;;;57.65;;
55330;SDS011;58851;42.984;20.336;2024-02-26T04:13:47;98.47;;;56.03;;
55330;SDS011;58851;42.984;20.336;2024-02-26T04:16:14;98.88;;;59.08;;
55330;SDS011;58851;42.984;20.336;2024-02-26T04:18:41;106.50;;;62.75;;
55330;SDS011;58851;42.984;20.336;2024-02-26T04:21:07;97.80;;;60.08;;
55330;SDS011;58851;42.984;20.336;2024-02-26T04:23:33;101.82;;;63.85;;
55330;SDS011;58851;42.984;20.336;2024-02-26T04:25:59;112.40;;;68.30;;
55330;SDS011;58851;42.984;20.336;2024-02-26T04:28:25;134.52;;;85.22;;
55330;SDS011;58851;42.984;20.336;2024-02-26T04:30:53;161.90;;;108.05;;
55330;SDS011;58851;42.984;20.336;2024-02-26T04:33:19;159.35;;;106.68;;
55330;SDS011;58851;42.984;20.336;2024-02-26T04:35:45;163.13;;;104.40;;
55330;SDS011;58851;42.984;20.336;2024-02-26T04:38:11;162.05;;;109.72;;
55330;SDS011;58851;42.984;20.336;2024-02-26T04:40:37;147.95;;;103.35;;
55330;SDS011;58851;42.984;20.336;2024-02-26T04:43:03;155.27;;;105.78;;
55330;SDS011;58851;42.984;20.336;2024-02-26T04:45:28;170.10;;;108.07;;
55330;SDS011;58851;42.984;20.336;2024-02-26T04:47:54;234.45;;;137.20;;
55330;SDS011;58851;42.984;20.336;2024-02-26T04:50:20;274.95;;;158.25;;
55330;SDS011;58851;42.984;20.336;2024-02-26T04:52:46;546.63;;;339.58;;
55330;SDS011;58851;42.984;20.336;2024-02-26T04:55:11;551.95;;;351.38;;
55330;SDS011;58851;42.984;20.336;2024-02-26T04:57:37;525.00;;;323.17;;
55330;SDS011;58851;42.984;20.336;2024-02-26T05:00:04;408.52;;;248.63;;
55330;SDS011;58851;42.984;20.336;2024-02-26T05:02:30;374.75;;;228.48;;
55330;SDS011;58851;42.984;20.336;2024-02-26T05:04:58;260.20;;;160.40;;
55330;SDS011;58851;42.984;20.336;2024-02-26T05:07:24;247.98;;;148.35;;
55330;SDS011;58851;42.984;20.336;2024-02-26T05:09:50;162.00;;;104.30;;
55330;SDS011;58851;42.984;20.336;2024-02-26T05:12:16;131.18;;;84.60;;
55330;SDS011;58851;42.984;20.336;2024-02-26T05:14:41;90.45;;;57.72;;
55330;SDS011;58851;42.984;20.336;2024-02-26T05:17:08;80.82;;;53.20;;
55330;SDS011;58851;42.984;20.336;2024-02-26T05:19:33;99.70;;;61.05;;
55330;SDS011;58851;42.984;20.336;2024-02-26T05:21:59;131.13;;;84.95;;
55330;SDS011;58851;42.984;20.336;2024-02-26T05:24:25;133.40;;;83.47;;
55330;SDS011;58851;42.984;20.336;2024-02-26T05:26:51;127.93;;;77.57;;
55330;SDS011;58851;42.984;20.336;2024-02-26T05:29:17;112.05;;;66.45;;
55330;SDS011;58851;42.984;20.336;2024-02-26T05:31:43;175.80;;;90.90;;
55330;SDS011;58851;42.984;20.336;2024-02-26T05:34:10;214.35;;;108.70;;
55330;SDS011;58851;42.984;20.336;2024-02-26T05:36:43;250.88;;;127.03;;
55330;SDS011;58851;42.984;20.336;2024-02-26T05:39:12;219.32;;;115.40;;
55330;SDS011;58851;42.984;20.336;2024-02-26T05:41:38;433.23;;;215.55;;
55330;SDS011;58851;42.984;20.336;2024-02-26T05:44:04;566.80;;;338.20;;
55330;SDS011;58851;42.984;20.336;2024-02-26T05:46:30;411.30;;;231.60;;
55330;SDS011;58851;42.984;20.336;2024-02-26T05:48:56;235.18;;;129.23;;
55330;SDS011;58851;42.984;20.336;2024-02-26T05:51:22;120.63;;;73.05;;
55330;SDS011;58851;42.984;20.336;2024-02-26T05:53:47;97.20;;;60.50;;
55330;SDS011;58851;42.984;20.336;2024-02-26T05:56:18;90.15;;;53.95;;
55330;SDS011;58851;42.984;20.336;2024-02-26T05:58:45;79.10;;;47.85;;
55330;SDS011;58851;42.984;20.336;2024-02-26T06:01:11;92.97;;;52.00;;
55330;SDS011;58851;42.984;20.336;2024-02-26T06:03:37;118.75;;;76.07;;
55330;SDS011;58851;42.984;20.336;2024-02-26T06:06:03;145.63;;;89.88;;
55330;SDS011;58851;42.984;20.336;2024-02-26T06:08:29;143.75;;;98.43;;
55330;SDS011;58851;42.984;20.336;2024-02-26T06:10:56;183.32;;;119.45;;
55330;SDS011;58851;42.984;20.336;2024-02-26T06:13:21;181.02;;;118.35;;
55330;SDS011;58851;42.984;20.336;2024-02-26T06:15:47;202.75;;;136.43;;
55330;SDS011;58851;42.984;20.336;2024-02-26T06:18:13;220.88;;;144.50;;
55330;SDS011;58851;42.984;20.336;2024-02-26T06:20:39;220.40;;;138.00;;
55330;SDS011;58851;42.984;20.336;2024-02-26T06:23:04;159.55;;;100.30;;
55330;SDS011;58851;42.984;20.336;2024-02-26T06:25:30;148.30;;;83.40;;
55330;SDS011;58851;42.984;20.336;2024-02-26T06:27:56;152.10;;;95.15;;
55330;SDS011;58851;42.984;20.336;2024-02-26T06:30:22;144.77;;;98.03;;
55330;SDS011;58851;42.984;20.336;2024-02-26T06:32:48;157.75;;;106.55;;
55330;SDS011;58851;42.984;20.336;2024-02-26T06:35:13;162.73;;;106.72;;
55330;SDS011;58851;42.984;20.336;2024-02-26T06:37:39;152.95;;;100.63;;
55330;SDS011;58851;42.984;20.336;2024-02-26T06:40:05;124.45;;;84.38;;
55330;SDS011;58851;42.984;20.336;2024-02-26T06:42:34;123.82;;;87.40;;
55330;SDS011;58851;42.984;20.336;2024-02-26T06:45:01;120.80;;;82.53;;
55330;SDS011;58851;42.984;20.336;2024-02-26T06:47:26;109.43;;;76.18;;
55330;SDS011;58851;42.984;20.336;2024-02-26T06:49:52;130.45;;;86.75;;
55330;SDS011;58851;42.984;20.336;2024-02-26T06:52:18;181.00;;;141.07;;
55330;SDS011;58851;42.984;20.336;2024-02-26T06:54:44;254.48;;;204.38;;
55330;SDS011;58851;42.984;20.336;2024-02-26T06:57:10;273.48;;;217.07;;
55330;SDS011;58851;42.984;20.336;2024-02-26T06:59:36;242.35;;;179.80;;
55330;SDS011;58851;42.984;20.336;2024-02-26T07:02:02;206.20;;;145.40;;
55330;SDS011;58851;42.984;20.336;2024-02-26T07:04:28;176.30;;;123.68;;
55330;SDS011;58851;42.984;20.336;2024-02-26T07:06:53;161.23;;;107.72;;
55330;SDS011;58851;42.984;20.336;2024-02-26T07:09:19;142.82;;;92.70;;
55330;SDS011;58851;42.984;20.336;2024-02-26T07:11:45;132.65;;;89.82;;
55330;SDS011;58851;42.984;20.336;2024-02-26T07:14:11;128.07;;;87.68;;
55330;SDS011;58851;42.984;20.336;2024-02-26T07:16:37;125.00;;;82.47;;
55330;SDS011;58851;42.984;20.336;2024-02-26T07:19:03;112.72;;;77.97;;
55330;SDS011;58851;42.984;20.336;2024-02-26T07:21:29;99.95;;;71.70;;
55330;SDS011;58851;42.984;20.336;2024-02-26T07:23:55;110.05;;;76.28;;
55330;SDS011;58851;42.984;20.336;2024-02-26T07:26:21;104.10;;;71.60;;
55330;SDS011;58851;42.984;20.336;2024-02-26T07:28:49;101.85;;;69.93;;
55330;SDS011;58851;42.984;20.336;2024-02-26T07:31:15;89.03;;;60.42;;
55330;SDS011;58851;42.984;20.336;2024-02-26T07:33:42;82.22;;;53.65;;
55330;SDS011;58851;42.984;20.336;2024-02-26T07:36:08;67.20;;;47.47;;
55330;SDS011;58851;42.984;20.336;2024-02-26T07:38:34;70.63;;;43.35;;
55330;SDS011;58851;42.984;20.336;2024-02-26T07:41:01;53.05;;;36.83;;
55330;SDS011;58851;42.984;20.336;2024-02-26T07:43:27;53.47;;;38.38;;
55330;SDS011;58851;42.984;20.336;2024-02-26T07:45:53;77.18;;;50.78;;
55330;SDS011;58851;42.984;20.336;2024-02-26T07:48:19;77.55;;;52.22;;
55330;SDS011;58851;42.984;20.336;2024-02-26T07:50:45;71.78;;;45.67;;
55330;SDS011;58851;42.984;20.336;2024-02-26T07:53:11;54.20;;;40.97;;
55330;SDS011;58851;42.984;20.336;2024-02-26T07:55:36;53.22;;;35.45;;
55330;SDS011;58851;42.984;20.336;2024-02-26T07:58:02;42.45;;;31.30;;
55330;SDS011;58851;42.984;20.336;2024-02-26T08:00:28;73.05;;;42.28;;
55330;SDS011;58851;42.984;20.336;2024-02-26T08:02:54;64.60;;;43.17;;
55330;SDS011;58851;42.984;20.336;2024-02-26T08:05:20;61.88;;;40.55;;
55330;SDS011;58851;42.984;20.336;2024-02-26T08:07:46;52.75;;;35.60;;
55330;SDS011;58851;42.984;20.336;2024-02-26T08:10:12;63.63;;;38.88;;
55330;SDS011;58851;42.984;20.336;2024-02-26T08:12:37;56.40;;;35.60;;
55330;SDS011;58851;42.984;20.336;2024-02-26T08:15:04;55.05;;;35.75;;
55330;SDS011;58851;42.984;20.336;2024-02-26T08:17:30;50.05;;;34.90;;
55330;SDS011;58851;42.984;20.336;2024-02-26T08:19:58;57.13;;;34.20;;
55330;SDS011;58851;42.984;20.336;2024-02-26T08:22:24;44.00;;;29.70;;
55330;SDS011;58851;42.984;20.336;2024-02-26T08:24:50;31.80;;;20.80;;
55330;SDS011;58851;42.984;20.336;2024-02-26T08:27:16;30.23;;;18.98;;
55330;SDS011;58851;42.984;20.336;2024-02-26T08:29:42;28.73;;;19.55;;
55330;SDS011;58851;42.984;20.336;2024-02-26T08:32:08;29.30;;;20.40;;
55330;SDS011;58851;42.984;20.336;2024-02-26T08:34:34;27.70;;;18.55;;
55330;SDS011;58851;42.984;20.336;2024-02-26T08:37:00;22.60;;;17.08;;
55330;SDS011;58851;42.984;20.336;2024-02-26T08:39:25;37.75;;;21.52;;
55330;SDS011;58851;42.984;20.336;2024-02-26T08:41:51;31.55;;;21.90;;
55330;SDS011;58851;42.984;20.336;2024-02-26T08:44:17;37.13;;;21.40;;
55330;SDS011;58851;42.984;20.336;2024-02-26T08:46:43;22.88;;;15.73;;
55330;SDS011;58851;42.984;20.336;2024-02-26T08:49:10;22.63;;;17.33;;
55330;SDS011;58851;42.984;20.336;2024-02-26T08:51:41;23.70;;;17.05;;
55330;SDS011;58851;42.984;20.336;2024-02-26T08:54:08;27.65;;;17.48;;
55330;SDS011;58851;42.984;20.336;2024-02-26T08:56:33;23.38;;;17.70;;
55330;SDS011;58851;42.984;20.336;2024-02-26T08:58:59;19.63;;;15.05;;
55330;SDS011;58851;42.984;20.336;2024-02-26T09:01:29;23.63;;;14.98;;
55330;SDS011;58851;42.984;20.336;2024-02-26T09:03:56;22.23;;;15.25;;
55330;SDS011;58851;42.984;20.336;2024-02-26T09:06:22;24.70;;;16.25;;
55330;SDS011;58851;42.984;20.336;2024-02-26T09:08:47;27.08;;;17.95;;
55330;SDS011;58851;42.984;20.336;2024-02-26T09:11:13;21.48;;;15.70;;
55330;SDS011;58851;42.984;20.336;2024-02-26T09:13:39;30.45;;;17.45;;
55330;SDS011;58851;42.984;20.336;2024-02-26T09:16:05;28.42;;;17.45;;
55330;SDS011;58851;42.984;20.336;2024-02-26T09:18:31;32.25;;;21.83;;
55330;SDS011;58851;42.984;20.336;2024-02-26T09:20:57;23.58;;;16.25;;
55330;SDS011;58851;42.984;20.336;2024-02-26T09:23:23;31.90;;;22.23;;
55330;SDS011;58851;42.984;20.336;2024-02-26T09:25:49;35.08;;;23.85;;
55330;SDS011;58851;42.984;20.336;2024-02-26T09:28:15;39.22;;;22.88;;
55330;SDS011;58851;42.984;20.336;2024-02-26T09:30:42;42.28;;;26.17;;
55330;SDS011;58851;42.984;20.336;2024-02-26T09:33:09;36.33;;;25.77;;
55330;SDS011;58851;42.984;20.336;2024-02-26T09:35:36;39.30;;;26.17;;
55330;SDS011;58851;42.984;20.336;2024-02-26T09:38:02;33.50;;;20.70;;
55330;SDS011;58851;42.984;20.336;2024-02-26T09:40:28;78.47;;;67.25;;
55330;SDS011;58851;42.984;20.336;2024-02-26T09:42:58;40.05;;;22.88;;
55330;SDS011;58851;42.984;20.336;2024-02-26T09:45:28;34.22;;;22.92;;
55330;SDS011;58851;42.984;20.336;2024-02-26T09:47:57;35.15;;;22.77;;
55330;SDS011;58851;42.984;20.336;2024-02-26T09:50:23;37.72;;;24.00;;
55330;SDS011;58851;42.984;20.336;2024-02-26T09:52:49;45.67;;;28.60;;
55330;SDS011;58851;42.984;20.336;2024-02-26T09:55:16;31.95;;;17.92;;
55330;SDS011;58851;42.984;20.336;2024-02-26T09:57:44;36.33;;;25.13;;
55330;SDS011;58851;42.984;20.336;2024-02-26T10:00:16;20.27;;;11.13;;
55330;SDS011;58851;42.984;20.336;2024-02-26T10:02:47;11.85;;;8.30;;
55330;SDS011;58851;42.984;20.336;2024-02-26T10:05:19;8.15;;;6.35;;
55330;SDS011;58851;42.984;20.336;2024-02-26T10:07:46;11.13;;;6.35;;
55330;SDS011;58851;42.984;20.336;2024-02-26T10:10:21;15.77;;;9.38;;
55330;SDS011;58851;42.984;20.336;2024-02-26T10:12:54;19.67;;;13.35;;
55330;SDS011;58851;42.984;20.336;2024-02-26T10:15:29;7.53;;;5.72;;
55330;SDS011;58851;42.984;20.336;2024-02-26T10:17:54;12.02;;;5.30;;
55330;SDS011;58851;42.984;20.336;2024-02-26T10:20:20;8.88;;;5.13;;
55330;SDS011;58851;42.984;20.336;2024-02-26T10:22:51;14.38;;;7.88;;
55330;SDS011;58851;42.984;20.336;2024-02-26T10:25:33;14.98;;;9.70;;
55330;SDS011;58851;42.984;20.336;2024-02-26T10:28:09;9.70;;;4.90;;
55330;SDS011;58851;42.984;20.336;2024-02-26T10:30:36;10.77;;;5.57;;
55330;SDS011;58851;42.984;20.336;2024-02-26T10:33:02;14.23;;;7.22;;
55330;SDS011;58851;42.984;20.336;2024-02-26T10:35:28;13.25;;;7.78;;
55330;SDS011;58851;42.984;20.336;2024-02-26T10:37:56;11.55;;;6.32;;
55330;SDS011;58851;42.984;20.336;2024-02-26T10:40:22;16.77;;;7.25;;
55330;SDS011;58851;42.984;20.336;2024-02-26T10:42:48;12.57;;;6.53;;
55330;SDS011;58851;42.984;20.336;2024-02-26T10:45:13;14.32;;;6.43;;
55330;SDS011;58851;42.984;20.336;2024-02-26T10:47:40;11.00;;;6.82;;
55330;SDS011;58851;42.984;20.336;2024-02-26T10:50:07;9.52;;;6.55;;
55330;SDS011;58851;42.984;20.336;2024-02-26T10:52:34;16.17;;;7.38;;
55330;SDS011;58851;42.984;20.336;2024-02-26T10:55:02;11.35;;;5.22;;
55330;SDS011;58851;42.984;20.336;2024-02-26T11:00:02;13.93;;;6.45;;
55330;SDS011;58851;42.984;20.336;2024-02-26T11:02:31;9.73;;;5.80;;
55330;SDS011;58851;42.984;20.336;2024-02-26T11:05:00;13.60;;;6.10;;
55330;SDS011;58851;42.984;20.336;2024-02-26T11:07:29;9.70;;;5.05;;
55330;SDS011;58851;42.984;20.336;2024-02-26T11:09:55;14.65;;;5.95;;
55330;SDS011;58851;42.984;20.336;2024-02-26T11:12:22;11.05;;;7.30;;
55330;SDS011;58851;42.984;20.336;2024-02-26T11:14:49;11.65;;;5.75;;
55330;SDS011;58851;42.984;20.336;2024-02-26T11:17:20;11.75;;;5.57;;
55330;SDS011;58851;42.984;20.336;2024-02-26T11:19:48;21.95;;;10.73;;
55330;SDS011;58851;42.984;20.336;2024-02-26T11:22:16;18.52;;;10.68;;
55330;SDS011;58851;42.984;20.336;2024-02-26T11:24:41;21.02;;;12.55;;
55330;SDS011;58851;42.984;20.336;2024-02-26T11:27:08;33.33;;;12.70;;
55330;SDS011;58851;42.984;20.336;2024-02-26T11:29:41;28.73;;;15.15;;
55330;SDS011;58851;42.984;20.336;2024-02-26T11:32:17;24.48;;;12.40;;
55330;SDS011;58851;42.984;20.336;2024-02-26T11:34:43;28.90;;;16.77;;
55330;SDS011;58851;42.984;20.336;2024-02-26T11:37:10;23.27;;;14.15;;
55330;SDS011;58851;42.984;20.336;2024-02-26T11:39:39;16.70;;;8.40;;
55330;SDS011;58851;42.984;20.336;2024-02-26T11:42:09;14.25;;;7.95;;
55330;SDS011;58851;42.984;20.336;2024-02-26T11:44:39;11.07;;;5.75;;
55330;SDS011;58851;42.984;20.336;2024-02-26T11:47:13;11.20;;;5.82;;
55330;SDS011;58851;42.984;20.336;2024-02-26T11:49:43;18.15;;;6.22;;
55330;SDS011;58851;42.984;20.336;2024-02-26T11:52:09;13.32;;;7.68;;
55330;SDS011;58851;42.984;20.336;2024-02-26T11:54:48;18.80;;;12.93;;
55330;SDS011;58851;42.984;20.336;2024-02-26T11:57:21;8.48;;;4.65;;
55330;SDS011;58851;42.984;20.336;2024-02-26T11:59:51;14.02;;;8.82;;
55330;SDS011;58851;42.984;20.336;2024-02-26T12:05:21;10.07;;;4.50;;
55330;SDS011;58851;42.984;20.336;2024-02-26T12:10:28;11.18;;;5.68;;
55330;SDS011;58851;42.984;20.336;2024-02-26T12:13:03;6.75;;;4.38;;
55330;SDS011;58851;42.984;20.336;2024-02-26T12:15:39;11.35;;;7.18;;
55330;SDS011;58851;42.984;20.336;2024-02-26T12:18:08;10.77;;;5.47;;
55330;SDS011;58851;42.984;20.336;2024-02-26T12:20:37;15.15;;;4.82;;
55330;SDS011;58851;42.984;20.336;2024-02-26T12:23:03;15.55;;;8.27;;
55330;SDS011;58851;42.984;20.336;2024-02-26T12:25:29;11.32;;;5.70;;
55330;SDS011;58851;42.984;20.336;2024-02-26T12:27:56;13.20;;;5.32;;
55330;SDS011;58851;42.984;20.336;2024-02-26T12:30:22;14.05;;;5.05;;
55330;SDS011;58851;42.984;20.336;2024-02-26T12:32:51;21.75;;;5.82;;
55330;SDS011;58851;42.984;20.336;2024-02-26T12:35:21;10.60;;;5.22;;
55330;SDS011;58851;42.984;20.336;2024-02-26T12:37:49;14.90;;;7.82;;
55330;SDS011;58851;42.984;20.336;2024-02-26T12:40:16;16.00;;;7.55;;
55330;SDS011;58851;42.984;20.336;2024-02-26T12:42:42;27.38;;;11.00;;
55330;SDS011;58851;42.984;20.336;2024-02-26T12:45:10;14.23;;;9.60;;
55330;SDS011;58851;42.984;20.336;2024-02-26T12:47:40;22.58;;;12.75;;
55330;SDS011;58851;42.984;20.336;2024-02-26T12:50:16;12.07;;;7.38;;
55330;SDS011;58851;42.984;20.336;2024-02-26T12:52:46;29.33;;;12.75;;
55330;SDS011;58851;42.984;20.336;2024-02-26T12:55:18;23.05;;;11.00;;
55330;SDS011;58851;42.984;20.336;2024-02-26T12:57:46;14.38;;;7.70;;
55330;SDS011;58851;42.984;20.336;2024-02-26T13:00:15;21.25;;;8.95;;
55330;SDS011;58851;42.984;20.336;2024-02-26T13:02:43;19.92;;;9.50;;
55330;SDS011;58851;42.984;20.336;2024-02-26T13:05:11;18.60;;;5.07;;
55330;SDS011;58851;42.984;20.336;2024-02-26T13:07:46;12.50;;;6.57;;
55330;SDS011;58851;42.984;20.336;2024-02-26T13:10:16;17.08;;;5.13;;
55330;SDS011;58851;42.984;20.336;2024-02-26T13:12:49;20.35;;;8.15;;
55330;SDS011;58851;42.984;20.336;2024-02-26T13:15:19;19.88;;;11.15;;
55330;SDS011;58851;42.984;20.336;2024-02-26T13:17:46;16.67;;;7.13;;
55330;SDS011;58851;42.984;20.336;2024-02-26T13:20:12;15.35;;;6.75;;
55330;SDS011;58851;42.984;20.336;2024-02-26T13:22:49;26.13;;;17.52;;
55330;SDS011;58851;42.984;20.336;2024-02-26T13:25:19;15.80;;;7.63;;
55330;SDS011;58851;42.984;20.336;2024-02-26T13:27:46;13.93;;;8.65;;
55330;SDS011;58851;42.984;20.336;2024-02-26T13:30:12;14.75;;;8.50;;
55330;SDS011;58851;42.984;20.336;2024-02-26T13:32:38;18.67;;;10.77;;
55330;SDS011;58851;42.984;20.336;2024-02-26T13:35:19;23.90;;;6.72;;
55330;SDS011;58851;42.984;20.336;2024-02-26T13:37:45;12.55;;;6.55;;
55330;SDS011;58851;42.984;20.336;2024-02-26T13:40:11;19.60;;;7.55;;
55330;SDS011;58851;42.984;20.336;2024-02-26T13:42:37;18.70;;;6.88;;
55330;SDS011;58851;42.984;20.336;2024-02-26T13:45:04;10.93;;;6.40;;
55330;SDS011;58851;42.984;20.336;2024-02-26T13:47:34;11.88;;;6.07;;
55330;SDS011;58851;42.984;20.336;2024-02-26T13:50:01;14.05;;;6.32;;
55330;SDS011;58851;42.984;20.336;2024-02-26T13:52:27;18.80;;;4.50;;
55330;SDS011;58851;42.984;20.336;2024-02-26T13:54:53;14.55;;;7.68;;
55330;SDS011;58851;42.984;20.336;2024-02-26T13:57:19;12.18;;;4.05;;
55330;SDS011;58851;42.984;20.336;2024-02-26T13:59:45;19.05;;;7.07;;
55330;SDS011;58851;42.984;20.336;2024-02-26T14:02:11;11.63;;;5.88;;
55330;SDS011;58851;42.984;20.336;2024-02-26T14:04:37;14.30;;;9.88;;
55330;SDS011;58851;42.984;20.336;2024-02-26T14:07:03;16.38;;;9.10;;
55330;SDS011;58851;42.984;20.336;2024-02-26T14:09:30;14.65;;;6.38;;
55330;SDS011;58851;42.984;20.336;2024-02-26T14:11:57;15.65;;;7.90;;